TISX/STX METAR and TAF weather

Enter ICAO airport designator
Station Type Date Time Source
TISX METAR 2019/12/10 05:53 UTC NOAA

TISX 100553Z AUTO 06009KT 10SM CLR 26/21 A3001 RMK AO2 SLP161 60000 T02560206 10272 20244 58014


Station Type Date Time Source
TISX Decoded METAR 2019/12/10 05:53 UTC NOAA

Christiansted, Henry E. Rohlsen Airport, Virgin Islands (TISX) 17-42N 064-48W 17M
Dec 10, 2019 - 12:53 AM EST / 2019.12.10 0553 UTC
Wind: from the ENE (060 degrees) at 10 MPH (9 KT):0
Visibility: 10 mile(s):0
Sky conditions: clear
Temperature: 78.1 F (25.6 C)
Dew Point: 69.1 F (20.6 C)
Relative Humidity: 73%
Pressure (altimeter): 30.01 in. Hg (1016 hPa)
Pressure tendency: 0.04 inches (1.4 hPa) lower than three hours ago
ob: TISX 100553Z AUTO 06009KT 10SM CLR 26/21 A3001 RMK AO2 SLP161 60000 T02560206 10272 20244 58014
cycle: 6

Station Type Date Time Source
TISX TAF 2019/12/10 06:44 UTC NOAA

TAF TISX 100538Z 1006/1106 07009KT P6SM VCSH SKC
FM101400 07014G24KT P6SM FEW030 SCT050
FM102330 06012KT P6SM VCSH SCT025 BKN060
FM110200 07008KT P6SM FEW030 FEW045

Example: see airport list